Time;durP1;ratioP1;P1;durP2;ratioP2;P2;SDS_P1;SDS_P2;PMS_P1;PMS_P2;Temp;Humidity;BMP_temperature;BMP_pressure;BME280_temperature;BME280_humidity;BME280_pressure;Samples;Min_cycle;Max_cycle;Signal;HPM_P1;HPM_P2
2021/10/31 00:01:12;;;;;;;65.13;34.00;;;204.90;2252.80;;;;;;5096046;28;20040;-53
2021/10/31 00:03:37;;;;;;;66.25;33.13;;;204.80;2252.80;;;;;;5095846;28;20518;-56
2021/10/31 00:06:03;;;;;;;66.90;34.75;;;204.80;2252.80;;;;;;5095873;28;20027;-60
2021/10/31 00:08:29;;;;;;;75.00;39.30;;;180.10;2252.80;;;;;;5093655;28;20024;-53
2021/10/31 00:10:56;;;;;;;67.05;36.47;;;180.10;2252.80;;;;;;5095817;28;20024;-58
2021/10/31 00:13:23;;;;;;;68.43;35.55;;;180.10;2252.80;;;;;;5095847;28;20416;-55
2021/10/31 00:15:49;;;;;;;64.65;33.08;;;180.00;2252.80;;;;;;5095622;28;20052;-55
2021/10/31 00:18:14;;;;;;;60.70;33.47;;;180.00;2252.80;;;;;;5095534;28;20039;-53
2021/10/31 00:20:40;;;;;;;69.90;36.10;;;180.00;2252.80;;;;;;5095374;28;20033;-57
2021/10/31 00:23:07;;;;;;;69.93;37.13;;;180.00;2252.80;;;;;;5094346;28;20153;-53
2021/10/31 00:25:32;;;;;;;69.30;36.95;;;179.90;2252.80;;;;;;5095632;28;20411;-56
2021/10/31 00:27:58;;;;;;;68.95;37.55;;;179.90;2252.80;;;;;;5095539;28;20016;-65
2021/10/31 00:30:24;;;;;;;65.13;34.83;;;179.90;2252.80;;;;;;5095445;28;20024;-56
2021/10/31 00:32:49;;;;;;;63.40;34.08;;;179.80;2252.80;;;;;;5095409;28;20107;-60
2021/10/31 00:35:15;;;;;;;65.20;34.33;;;179.80;2252.80;;;;;;5095520;28;20032;-61
2021/10/31 00:37:40;;;;;;;60.13;32.38;;;179.80;2252.80;;;;;;5095350;28;20016;-53
2021/10/31 00:40:07;;;;;;;62.20;32.90;;;179.80;2252.80;;;;;;5094000;28;20039;-57
2021/10/31 00:42:33;;;;;;;60.67;31.90;;;179.70;2252.80;;;;;;5095097;28;20056;-56
2021/10/31 00:44:59;;;;;;;55.63;30.80;;;179.60;2252.80;;;;;;5095025;28;20053;-54
2021/10/31 00:47:24;;;;;;;60.42;31.48;;;179.60;2252.80;;;;;;5094606;28;20114;-55
2021/10/31 00:49:50;;;;;;;55.65;31.48;;;179.60;2252.80;;;;;;5095263;28;20020;-55
2021/10/31 00:52:17;;;;;;;52.30;28.20;;;179.60;2252.80;;;;;;5094856;28;20020;-54
2021/10/31 00:54:43;;;;;;;51.47;27.48;;;179.60;2252.80;;;;;;5095019;28;20031;-54
2021/10/31 00:57:11;;;;;;;50.80;27.27;;;179.60;2252.80;;;;;;5094973;28;20025;-57
2021/10/31 00:59:37;;;;;;;51.00;27.80;;;179.60;2252.80;;;;;;5094757;28;20036;-56
2021/10/31 01:02:09;;;;;;;46.35;26.73;;;179.60;2252.80;;;;;;5095054;28;20051;-54
2021/10/31 01:04:35;;;;;;;49.05;26.60;;;179.50;2252.80;;;;;;5095224;28;20109;-54
2021/10/31 01:07:25;;;;;;;45.33;25.15;;;179.40;2252.80;;;;;;5094952;28;20044;-57
2021/10/31 01:10:27;;;;;;;46.53;24.90;;;179.40;2252.80;;;;;;5094755;28;20033;-54
2021/10/31 01:13:13;;;;;;;46.70;24.77;;;179.40;2252.80;;;;;;5012548;28;20053;-58
2021/10/31 01:15:47;;;;;;;45.97;24.58;;;179.40;2252.80;;;;;;5012571;28;20066;-53
2021/10/31 01:18:13;;;;;;;43.67;24.92;;;179.40;2252.80;;;;;;5012653;28;20037;-56
2021/10/31 01:21:03;;;;;;;43.35;24.08;;;179.40;2252.80;;;;;;5012157;28;20041;-54
2021/10/31 01:23:49;;;;;;;45.78;23.65;;;179.40;2252.80;;;;;;5012640;28;20034;-53
2021/10/31 01:26:36;;;;;;;206.73;93.85;;;179.40;2252.80;;;;;;5012261;28;20561;-53
2021/10/31 01:29:13;;;;;;;99.45;48.08;;;179.30;2252.80;;;;;;5012288;28;20064;-53
2021/10/31 01:32:06;;;;;;;52.90;27.40;;;179.30;2252.80;;;;;;5012464;28;20048;-54
2021/10/31 01:35:01;;;;;;;59.92;30.73;;;179.20;2252.80;;;;;;5012565;28;20141;-53
2021/10/31 01:37:46;;;;;;;;;;;179.20;2252.80;;;;;;5012514;28;20072;-53
2021/10/31 01:40:42;;;;;;;59.10;29.17;;;179.20;2252.80;;;;;;5012261;28;20259;-53
2021/10/31 01:43:25;;;;;;;55.63;29.95;;;154.50;2252.80;;;;;;5010132;28;20558;-53
2021/10/31 01:46:06;;;;;;;56.78;29.00;;;154.50;2252.80;;;;;;5012190;28;20109;-53
2021/10/31 01:48:59;;;;;;;51.05;26.85;;;154.50;2252.80;;;;;;5055452;28;20115;-53
2021/10/31 01:51:39;;;;;;;54.72;29.20;;;154.40;2252.80;;;;;;5093975;28;20043;-54
2021/10/31 01:54:13;;;;;;;58.20;29.20;;;154.40;2252.80;;;;;;5093635;28;20372;-53
2021/10/31 01:56:43;;;;;;;54.20;27.85;;;154.40;2252.80;;;;;;5093805;28;20443;-54
2021/10/31 01:59:27;;;;;;;48.80;26.23;;;154.30;2252.80;;;;;;5093997;28;20024;-55
2021/10/31 02:01:54;;;;;;;49.97;26.15;;;154.40;2252.80;;;;;;5093792;28;20110;-54
2021/10/31 02:04:23;;;;;;;47.97;27.00;;;154.40;2252.80;;;;;;5093963;28;20024;-53
2021/10/31 02:06:51;;;;;;;52.47;26.73;;;154.30;2252.80;;;;;;5093821;28;20470;-54
2021/10/31 02:09:21;;;;;;;51.00;27.95;;;154.30;2252.80;;;;;;5094011;28;20059;-53
2021/10/31 02:11:48;;;;;;;54.38;27.27;;;154.40;2252.80;;;;;;5094453;28;20393;-54
2021/10/31 02:14:14;;;;;;;49.22;26.08;;;154.40;2252.80;;;;;;5094071;28;20032;-60
2021/10/31 02:16:41;;;;;;;50.80;25.63;;;154.30;2252.80;;;;;;5093641;28;20044;-57
2021/10/31 02:19:15;;;;;;;45.53;25.75;;;154.20;2252.80;;;;;;5093698;28;20113;-54
2021/10/31 02:21:41;;;;;;;49.55;26.27;;;154.30;2252.80;;;;;;5093674;28;20040;-55
2021/10/31 02:24:08;;;;;;;49.28;26.15;;;154.20;2252.80;;;;;;5093904;28;20036;-54
2021/10/31 02:26:37;;;;;;;46.53;24.63;;;154.20;2252.80;;;;;;5092473;28;20039;-54
2021/10/31 02:29:07;;;;;;;50.42;25.10;;;154.10;2252.80;;;;;;5093722;28;20434;-54
2021/10/31 02:31:35;;;;;;;43.10;24.08;;;154.00;2252.80;;;;;;5094716;28;20107;-53
2021/10/31 02:34:01;;;;;;;44.28;23.15;;;154.10;2252.80;;;;;;5097845;28;20028;-53
2021/10/31 02:36:27;;;;;;;43.47;24.40;;;154.00;2252.80;;;;;;5097713;28;20023;-53
2021/10/31 02:38:53;;;;;;;39.25;22.88;;;154.00;2252.80;;;;;;5097359;28;20043;-53
2021/10/31 02:41:19;;;;;;;41.20;23.70;;;153.90;2252.80;;;;;;5097651;28;20476;-53
2021/10/31 02:43:46;;;;;;;41.67;23.98;;;153.90;2252.80;;;;;;5097396;28;20051;-53
2021/10/31 02:46:12;;;;;;;41.05;23.25;;;153.90;2252.80;;;;;;5097666;28;20062;-56
2021/10/31 02:48:40;;;;;;;44.33;23.52;;;153.80;2252.80;;;;;;5097544;28;20085;-54
2021/10/31 02:51:14;;;;;;;39.45;22.33;;;153.80;2252.80;;;;;;5097552;28;20028;-53
2021/10/31 02:53:52;;;;;;;41.73;22.37;;;153.80;2252.80;;;;;;5097287;28;20457;-54
2021/10/31 02:56:45;;;;;;;42.13;24.85;;;153.80;2252.80;;;;;;5097155;28;20039;-53
2021/10/31 02:59:28;;;;;;;43.30;23.83;;;153.80;2252.80;;;;;;5097585;28;20030;-58
2021/10/31 03:01:57;;;;;;;46.25;25.33;;;153.80;2252.80;;;;;;5097285;28;20055;-56
2021/10/31 03:04:26;;;;;;;60.67;30.90;;;153.80;2252.80;;;;;;5097116;28;20189;-53
2021/10/31 03:36:10;;;;;;;52.63;28.25;;;153.60;2252.80;;;;;;5082669;28;19977;-59
2021/10/31 03:38:35;;;;;;;54.33;29.60;;;128.90;2252.80;;;;;;5097197;28;20035;-67
2021/10/31 03:41:01;;;;;;;52.15;28.25;;;128.90;2252.80;;;;;;5097007;28;20028;-55
2021/10/31 03:43:27;;;;;;;51.70;27.65;;;128.90;2252.80;;;;;;5096220;28;20052;-54
2021/10/31 03:45:52;;;;;;;48.92;27.02;;;128.80;2252.80;;;;;;5096645;28;20499;-53
2021/10/31 03:48:18;;;;;;;48.03;25.48;;;128.80;2252.80;;;;;;5096765;28;20080;-58
2021/10/31 03:50:44;;;;;;;43.58;24.17;;;128.90;2252.80;;;;;;5096797;28;20032;-74
2021/10/31 03:53:10;;;;;;;41.75;23.13;;;128.80;2252.80;;;;;;5098956;28;20224;-53
2021/10/31 03:55:36;;;;;;;38.45;22.33;;;128.80;2252.80;;;;;;5096036;28;20389;-53
2021/10/31 03:58:01;;;;;;;46.08;24.50;;;128.80;2252.80;;;;;;5096101;28;20031;-54
2021/10/31 04:00:27;;;;;;;51.38;25.67;;;128.80;2252.80;;;;;;5095754;28;20140;-54
2021/10/31 04:02:53;;;;;;;50.53;25.35;;;128.90;2252.80;;;;;;5096004;28;20028;-53
2021/10/31 04:05:18;;;;;;;46.78;24.02;;;128.80;2252.80;;;;;;5095973;28;20095;-56
2021/10/31 04:07:46;;;;;;;45.25;23.85;;;128.80;2252.80;;;;;;5096224;28;20123;-53
2021/10/31 04:10:11;;;;;;;42.40;23.75;;;128.80;2252.80;;;;;;5095879;28;20038;-58
2021/10/31 04:12:37;;;;;;;46.83;24.73;;;128.80;2252.80;;;;;;5095893;28;20099;-54
2021/10/31 04:15:05;;;;;;;43.25;24.38;;;128.80;2252.80;;;;;;5095821;28;20061;-53
2021/10/31 04:17:31;;;;;;;46.30;24.95;;;128.80;2252.80;;;;;;5095642;28;20028;-54
2021/10/31 04:19:57;;;;;;;45.63;25.38;;;128.80;2252.80;;;;;;5095602;28;20105;-53
2021/10/31 04:22:22;;;;;;;47.03;24.83;;;128.80;2252.80;;;;;;5095841;28;20469;-53
2021/10/31 04:24:48;;;;;;;48.53;24.77;;;128.80;2252.80;;;;;;5095255;28;20050;-53
2021/10/31 04:27:14;;;;;;;50.65;26.35;;;128.80;2252.80;;;;;;5095369;28;20107;-54
2021/10/31 04:29:39;;;;;;;55.08;27.75;;;128.70;2252.80;;;;;;5095334;28;20470;-53
2021/10/31 04:32:06;;;;;;;57.05;29.55;;;128.70;2252.80;;;;;;5095684;28;20016;-52
2021/10/31 04:34:31;;;;;;;50.42;26.83;;;128.80;2252.80;;;;;;5095479;28;20028;-53
2021/10/31 04:36:58;;;;;;;52.85;28.67;;;128.70;2252.80;;;;;;5094451;28;20048;-53
2021/10/31 04:39:23;;;;;;;52.47;27.50;;;128.70;2252.80;;;;;;5095421;28;20032;-53
2021/10/31 04:41:49;;;;;;;52.45;26.75;;;128.60;2252.80;;;;;;5095327;28;20035;-53
2021/10/31 04:44:15;;;;;;;49.30;26.45;;;128.60;2252.80;;;;;;5094802;28;20111;-53
2021/10/31 04:46:42;;;;;;;49.35;25.80;;;128.60;2252.80;;;;;;5095256;28;20107;-53
2021/10/31 04:49:08;;;;;;;51.55;25.77;;;128.60;2252.80;;;;;;5095294;28;20024;-54
2021/10/31 04:51:34;;;;;;;44.83;24.85;;;128.50;2252.80;;;;;;5095059;28;20057;-53
2021/10/31 04:54:00;;;;;;;46.80;25.02;;;128.40;2252.80;;;;;;5094368;28;20032;-59
2021/10/31 04:56:25;;;;;;;45.92;24.20;;;128.50;2252.80;;;;;;5095010;28;20051;-53
2021/10/31 04:58:52;;;;;;;43.88;23.65;;;128.60;2252.80;;;;;;5094702;28;20055;-54
2021/10/31 05:01:18;;;;;;;46.20;25.27;;;128.60;2252.80;;;;;;5094606;28;20040;-53
2021/10/31 05:03:44;;;;;;;42.78;24.20;;;128.60;2252.80;;;;;;5094607;28;20035;-53
2021/10/31 05:06:10;;;;;;;49.10;26.67;;;128.60;2252.80;;;;;;5094713;28;20032;-54
2021/10/31 05:08:36;;;;;;;48.88;25.95;;;128.60;2252.80;;;;;;5094872;28;20028;-53
2021/10/31 05:11:03;;;;;;;47.85;25.15;;;128.60;2252.80;;;;;;5094357;28;20024;-53
2021/10/31 05:13:29;;;;;;;51.25;26.02;;;128.50;2252.80;;;;;;5094424;28;20032;-53
2021/10/31 05:15:54;;;;;;;48.05;25.17;;;128.60;2252.80;;;;;;5094470;28;20032;-53
2021/10/31 05:18:20;;;;;;;47.55;25.85;;;128.60;2252.80;;;;;;5094639;28;20040;-53
2021/10/31 05:20:46;;;;;;;44.28;24.92;;;128.50;2252.80;;;;;;5094541;28;20036;-54
2021/10/31 05:23:11;;;;;;;42.92;24.75;;;128.50;2252.80;;;;;;5094569;28;20036;-54
2021/10/31 05:25:37;;;;;;;62.28;31.88;;;128.50;2252.80;;;;;;5094696;28;20024;-53
2021/10/31 05:28:03;;;;;;;63.42;33.25;;;128.50;2252.80;;;;;;5094296;28;20547;-53
2021/10/31 05:30:29;;;;;;;71.45;36.70;;;128.60;2252.80;;;;;;5093788;28;20055;-53
2021/10/31 05:32:55;;;;;;;80.53;38.55;;;128.60;2252.80;;;;;;5094144;28;20035;-53
2021/10/31 05:35:21;;;;;;;84.07;40.83;;;128.50;2252.80;;;;;;5094226;28;20107;-53
2021/10/31 05:37:48;;;;;;;78.07;37.00;;;128.60;2252.80;;;;;;5094492;28;20465;-53
2021/10/31 05:40:16;;;;;;;66.20;34.50;;;128.70;2252.80;;;;;;5094250;28;20047;-53
2021/10/31 05:42:43;;;;;;;58.28;30.42;;;128.70;2252.80;;;;;;5094208;28;20025;-53
2021/10/31 05:45:09;;;;;;;55.92;29.65;;;128.70;2252.80;;;;;;5093404;28;20088;-53
2021/10/31 05:47:37;;;;;;;61.97;33.08;;;128.80;2252.80;;;;;;5093697;28;20377;-54
2021/10/31 05:50:08;;;;;;;61.92;32.72;;;153.70;2252.80;;;;;;5092339;28;20385;-54
2021/10/31 05:52:35;;;;;;;74.18;39.53;;;154.40;2252.80;;;;;;5094063;28;20044;-53
2021/10/31 05:55:02;;;;;;;66.47;36.05;;;179.70;2252.80;;;;;;5094086;28;20059;-53
2021/10/31 05:57:28;;;;;;;66.25;35.42;;;180.00;2252.80;;;;;;5093943;28;20054;-54
2021/10/31 05:59:54;;;;;;;63.08;35.08;;;205.20;2252.80;;;;;;5093828;28;20461;-55
2021/10/31 06:02:20;;;;;;;65.40;37.13;;;230.70;2252.80;;;;;;5093862;28;20063;-54
2021/10/31 06:04:46;;;;;;;63.72;36.90;;;256.30;2252.80;;;;;;5093702;28;20058;-54
2021/10/31 06:07:13;;;;;;;156.80;67.55;;;281.80;2278.40;;;;;;5093859;28;20024;-54
2021/10/31 06:09:39;;;;;;;160.95;77.18;;;282.50;2278.40;;;;;;5093825;28;20056;-54
2021/10/31 06:12:05;;;;;;;135.95;72.70;;;307.80;2227.20;;;;;;5093753;28;20020;-55
2021/10/31 06:14:33;;;;;;;186.65;87.10;;;333.10;2176.00;;;;;;5093727;28;20492;-54
2021/10/31 06:16:59;;;;;;;134.30;70.13;;;333.60;2048.00;;;;;;5093907;28;20385;-53
2021/10/31 06:19:24;;;;;;;108.53;59.08;;;333.50;2022.40;;;;;;5093702;28;20032;-55
2021/10/31 06:21:50;;;;;;;90.53;53.30;;;333.30;2048.00;;;;;;5092047;28;20028;-59
2021/10/31 06:24:16;;;;;;;89.53;54.42;;;332.90;2073.60;;;;;;5093710;28;20099;-55
2021/10/31 06:26:41;;;;;;;90.95;59.15;;;308.00;2124.80;;;;;;5093885;28;20050;-55
2021/10/31 06:29:07;;;;;;;83.18;52.05;;;307.80;2150.40;;;;;;5093430;28;20069;-54
2021/10/31 06:31:33;;;;;;;81.30;51.72;;;307.50;2176.00;;;;;;5093846;28;20107;-56
2021/10/31 06:33:59;;;;;;;76.35;47.22;;;307.20;2227.20;;;;;;5093744;28;20488;-54
2021/10/31 06:36:25;;;;;;;65.32;41.33;;;282.20;2278.40;;;;;;5093454;28;20059;-63
2021/10/31 06:38:50;;;;;;;49.08;32.45;;;281.90;2278.40;;;;;;5093760;28;20074;-57
2021/10/31 06:41:16;;;;;;;39.55;26.90;;;281.60;2278.40;;;;;;5093675;28;20040;-55
2021/10/31 06:43:42;;;;;;;39.63;27.63;;;256.90;2252.80;;;;;;5093469;28;20469;-61
2021/10/31 06:46:08;;;;;;;36.50;25.88;;;256.80;2252.80;;;;;;5093860;28;20030;-58
2021/10/31 06:48:34;;;;;;;38.80;26.65;;;256.60;2252.80;;;;;;5093361;28;20476;-55
2021/10/31 06:50:59;;;;;;;40.17;27.67;;;256.40;2252.80;;;;;;5093292;28;20115;-55
2021/10/31 06:53:25;;;;;;;35.40;26.27;;;256.60;2252.80;;;;;;5093644;28;20059;-53
2021/10/31 06:55:51;;;;;;;34.70;23.90;;;256.60;2252.80;;;;;;5093612;28;20032;-54
2021/10/31 06:58:16;;;;;;;30.65;20.13;;;256.60;2252.80;;;;;;5093359;28;20024;-54
2021/10/31 07:00:42;;;;;;;28.52;19.30;;;256.70;2252.80;;;;;;5093528;28;20032;-54
2021/10/31 07:03:08;;;;;;;29.60;20.10;;;256.90;2252.80;;;;;;5093510;28;20048;-54
2021/10/31 07:05:34;;;;;;;28.15;18.38;;;281.90;2278.40;;;;;;5093561;28;20052;-53
2021/10/31 07:08:00;;;;;;;25.40;17.52;;;307.30;2304.00;;;;;;5093328;28;20024;-54
2021/10/31 07:10:26;;;;;;;24.38;17.17;;;333.30;2329.60;;;;;;5093358;28;20028;-58
2021/10/31 07:12:52;;;;;;;25.20;16.65;;;359.30;2124.80;;;;;;5093215;28;20024;-54
2021/10/31 07:15:17;;;;;;;22.48;16.58;;;409.80;1945.60;;;;;;5093166;28;20362;-55
2021/10/31 07:17:44;;;;;;;24.48;17.85;;;435.20;1792.00;;;;;;5094437;28;20039;-54
2021/10/31 07:20:13;;;;;;;26.17;18.52;;;461.50;1638.40;;;;;;5097169;28;20032;-56
2021/10/31 07:22:40;;;;;;;28.05;21.08;;;486.90;1510.40;;;;;;5096917;28;20024;-54
2021/10/31 07:25:07;;;;;;;29.70;22.63;;;537.70;1433.60;;;;;;5096740;28;20028;-55
2021/10/31 07:27:33;;;;;;;21.63;16.08;;;563.60;1305.60;;;;;;5096723;28;20039;-55
2021/10/31 07:29:58;;;;;;;19.52;16.30;;;589.30;1203.20;;;;;;5096948;28;20028;-55
2021/10/31 07:32:25;;;;;;;24.38;19.20;;;614.40;1152.00;;;;;;5096562;28;20026;-54
2021/10/31 07:34:51;;;;;;;19.58;16.10;;;640.30;1075.20;;;;;;5096670;28;20067;-54
2021/10/31 07:37:16;;;;;;;18.67;16.40;;;666.20;998.40;;;;;;5096270;28;20473;-55
2021/10/31 07:39:43;;;;;;;25.08;22.38;;;691.20;972.80;;;;;;5096637;28;20081;-55
2021/10/31 07:42:09;;;;;;;21.05;17.85;;;716.90;896.00;;;;;;5096397;28;20048;-55
2021/10/31 07:44:35;;;;;;;23.20;20.05;;;717.30;870.40;;;;;;5096589;28;20402;-60
2021/10/31 07:47:00;;;;;;;18.77;16.42;;;717.70;844.80;;;;;;5096355;28;20058;-57
2021/10/31 07:49:26;;;;;;;19.58;17.50;;;742.90;819.20;;;;;;5096336;28;20016;-55
2021/10/31 07:51:52;;;;;;;16.15;13.63;;;768.20;793.60;;;;;;5096368;28;20032;-55
2021/10/31 07:54:24;;;;;;;17.40;13.98;;;768.20;819.20;;;;;;5094908;28;20021;-55
2021/10/31 07:56:51;;;;;;;16.30;13.90;;;768.40;819.20;;;;;;5096234;28;20028;-55
2021/10/31 07:59:17;;;;;;;14.20;12.70;;;793.90;819.20;;;;;;5095894;28;20039;-55
2021/10/31 08:01:43;;;;;;;15.70;13.70;;;768.80;768.00;;;;;;5095911;28;20036;-55
2021/10/31 08:04:09;;;;;;;14.35;12.85;;;793.90;793.60;;;;;;5096142;28;20024;-55
2021/10/31 08:06:35;;;;;;;14.90;13.40;;;793.90;793.60;;;;;;5095974;28;20036;-55
2021/10/31 08:09:00;;;;;;;17.40;13.77;;;819.80;742.40;;;;;;5096073;28;20016;-55
2021/10/31 08:11:26;;;;;;;15.45;13.85;;;845.30;716.80;;;;;;5094950;28;20035;-56
2021/10/31 08:13:52;;;;;;;19.15;17.25;;;845.60;691.20;;;;;;5095386;28;20032;-55
2021/10/31 08:16:20;;;;;;;25.50;23.02;;;870.50;665.60;;;;;;5094746;28;20106;-55
2021/10/31 08:18:46;;;;;;;39.15;33.58;;;845.70;691.20;;;;;;5094159;28;20032;-55
2021/10/31 08:21:11;;;;;;;21.30;18.88;;;871.10;640.00;;;;;;5094493;28;20496;-59
2021/10/31 08:23:39;;;;;;;16.13;14.48;;;871.10;640.00;;;;;;5094747;28;20024;-57
2021/10/31 08:26:04;;;;;;;15.27;13.65;;;896.30;614.40;;;;;;5087166;28;20091;-57
2021/10/31 08:28:33;;;;;;;14.77;13.27;;;896.20;614.40;;;;;;5093364;28;20020;-54
2021/10/31 08:31:00;;;;;;;15.70;13.75;;;896.90;588.80;;;;;;5093948;28;20082;-57
2021/10/31 08:33:32;;;;;;;15.70;13.10;;;922.10;614.40;;;;;;5094066;28;20092;-57
2021/10/31 08:35:58;;;;;;;14.98;13.48;;;922.30;588.80;;;;;;5094252;28;20060;-53
2021/10/31 08:38:24;;;;;;;14.55;13.05;;;922.20;588.80;;;;;;5094075;28;20055;-58
2021/10/31 08:40:52;;;;;;;15.80;14.10;;;947.30;563.20;;;;;;5094136;28;20040;-57
2021/10/31 08:43:18;;;;;;;16.08;14.52;;;947.80;537.60;;;;;;5094096;28;20027;-58
2021/10/31 08:45:45;;;;;;;15.55;13.98;;;948.00;537.60;;;;;;5094005;28;20354;-63
2021/10/31 08:48:12;;;;;;;14.95;13.45;;;948.00;537.60;;;;;;5094070;28;20020;-54
2021/10/31 08:50:38;;;;;;;17.30;15.52;;;947.60;537.60;;;;;;5093610;28;20031;-53
2021/10/31 08:53:06;;;;;;;41.92;30.63;;;948.00;512.00;;;;;;5093170;28;20036;-54
2021/10/31 08:55:32;;;;;;;19.92;17.88;;;921.90;563.20;;;;;;5093701;28;20103;-55
2021/10/31 08:57:58;;;;;;;14.60;13.10;;;947.50;537.60;;;;;;5094116;28;20044;-54
2021/10/31 09:00:25;;;;;;;16.75;15.05;;;922.40;537.60;;;;;;5094679;28;20036;-54
2021/10/31 09:02:51;;;;;;;14.60;13.20;;;922.40;537.60;;;;;;5094162;28;20027;-55
2021/10/31 09:05:17;;;;;;;13.38;12.05;;;922.00;563.20;;;;;;5093750;28;20478;-57
2021/10/31 09:07:43;;;;;;;13.98;12.50;;;922.40;537.60;;;;;;5093979;28;20130;-54
2021/10/31 09:10:09;;;;;;;13.05;11.85;;;947.60;537.60;;;;;;5091481;28;20031;-55
2021/10/31 09:12:35;;;;;;;13.07;11.73;;;947.70;512.00;;;;;;5090217;28;20024;-60
2021/10/31 09:15:01;;;;;;;19.08;17.17;;;948.00;512.00;;;;;;5092558;28;20500;-62
2021/10/31 09:17:27;;;;;;;15.35;13.85;;;922.30;537.60;;;;;;5092561;28;20036;-54
2021/10/31 09:19:53;;;;;;;14.35;12.95;;;922.20;563.20;;;;;;5092040;28;20036;-56
2021/10/31 09:22:19;;;;;;;13.38;11.98;;;947.60;537.60;;;;;;5092351;28;20369;-55
2021/10/31 09:24:44;;;;;;;14.38;12.90;;;947.30;537.60;;;;;;5091917;28;20036;-56
2021/10/31 09:27:10;;;;;;;14.10;12.70;;;947.30;537.60;;;;;;5093417;28;21648;-55
2021/10/31 09:29:36;;;;;;;13.43;11.90;;;896.30;563.20;;;;;;5088114;28;20028;-54
2021/10/31 09:32:02;;;;;;;14.88;12.45;;;871.30;588.80;;;;;;5092870;28;20101;-56
2021/10/31 09:34:29;;;;;;;13.13;11.82;;;870.70;614.40;;;;;;5092267;28;20032;-54
2021/10/31 09:36:56;;;;;;;13.48;12.18;;;871.10;588.80;;;;;;5092364;28;20134;-57
2021/10/31 09:39:21;;;;;;;20.30;18.17;;;845.70;640.00;;;;;;5093913;28;20016;-56
2021/10/31 09:41:48;;;;;;;29.40;26.52;;;871.00;614.40;;;;;;5093564;28;20031;-56
2021/10/31 09:46:40;;;;;;;12.70;11.50;;;896.50;563.20;;;;;;5094094;28;20027;-56
2021/10/31 09:49:08;;;;;;;16.80;12.75;;;871.20;614.40;;;;;;5093797;28;20024;-56
2021/10/31 09:51:34;;;;;;;14.20;12.70;;;871.20;588.80;;;;;;5094176;28;20373;-56
2021/10/31 09:54:01;;;;;;;13.52;12.20;;;896.10;588.80;;;;;;5094250;28;20027;-56
2021/10/31 09:56:27;;;;;;;15.60;13.52;;;870.60;614.40;;;;;;5094108;28;20032;-56
2021/10/31 09:58:59;;;;;;;14.35;11.50;;;845.30;640.00;;;;;;5091812;28;20028;-56
2021/10/31 10:04:27;;;;;;;;;;;870.90;614.40;;;;;;5094708;28;20051;-56
2021/10/31 10:06:54;;;;;;;15.85;13.75;;;896.50;563.20;;;;;;5094168;28;19990;-56
2021/10/31 10:09:21;;;;;;;15.32;13.75;;;871.20;588.80;;;;;;5092744;28;20453;-56
2021/10/31 10:11:47;;;;;;;14.70;13.20;;;870.40;640.00;;;;;;5093798;28;20047;-55
2021/10/31 10:14:24;;;;;;;14.52;13.02;;;845.00;665.60;;;;;;5093774;28;20028;-55
2021/10/31 10:17:01;;;;;;;17.52;15.13;;;845.10;665.60;;;;;;5093429;28;20111;-56
2021/10/31 10:19:30;;;;;;;15.82;14.25;;;844.90;665.60;;;;;;5093754;28;20020;-56
2021/10/31 10:22:06;;;;;;;15.55;13.95;;;845.70;640.00;;;;;;5093769;28;20024;-56
2021/10/31 10:24:37;;;;;;;16.70;14.10;;;845.30;665.60;;;;;;5093636;28;20405;-56
2021/10/31 10:27:06;;;;;;;15.27;13.77;;;870.40;640.00;;;;;;5093919;28;20381;-56
2021/10/31 10:29:40;;;;;;;16.63;14.98;;;870.80;614.40;;;;;;5093748;28;20428;-56
2021/10/31 10:32:07;;;;;;;;;;;871.00;614.40;;;;;;5094253;28;20031;-56
2021/10/31 10:34:48;;;;;;;17.20;15.30;;;871.20;588.80;;;;;;5093803;28;19904;-57
2021/10/31 10:37:29;;;;;;;15.23;13.50;;;896.60;588.80;;;;;;5093186;28;20056;-56
2021/10/31 10:40:02;;;;;;;16.70;14.25;;;922.00;588.80;;;;;;5093621;28;20040;-56
2021/10/31 10:42:41;;;;;;;16.67;14.90;;;947.50;537.60;;;;;;5093421;28;20026;-56
2021/10/31 10:45:14;;;;;;;16.85;15.15;;;922.20;563.20;;;;;;5093642;28;20488;-56
2021/10/31 10:47:49;;;;;;;18.25;15.48;;;947.20;537.60;;;;;;5093861;28;20094;-56
2021/10/31 10:50:17;;;;;;;14.68;13.18;;;947.70;512.00;;;;;;5093650;28;20036;-55
2021/10/31 10:52:43;;;;;;;15.93;14.20;;;948.10;486.40;;;;;;5085884;28;20359;-56
2021/10/31 10:55:15;;;;;;;15.40;13.88;;;947.80;512.00;;;;;;5076160;28;20149;-56
2021/10/31 10:57:46;;;;;;;14.73;13.20;;;948.10;512.00;;;;;;5076021;28;20025;-56
2021/10/31 11:00:19;;;;;;;17.80;15.68;;;947.40;512.00;;;;;;5075886;28;20539;-55
2021/10/31 11:02:58;;;;;;;15.18;13.68;;;948.00;512.00;;;;;;5076574;28;20024;-55
2021/10/31 11:05:32;;;;;;;19.60;17.70;;;922.40;563.20;;;;;;5076093;28;20044;-55
2021/10/31 11:07:59;;;;;;;15.73;14.13;;;921.90;563.20;;;;;;5074861;28;20026;-55
2021/10/31 11:10:29;;;;;;;16.48;14.70;;;921.60;588.80;;;;;;5083332;28;20606;-55
2021/10/31 11:13:00;;;;;;;14.75;13.20;;;896.80;563.20;;;;;;5094153;28;20495;-56
2021/10/31 11:15:30;;;;;;;13.75;12.45;;;871.20;588.80;;;;;;5095544;28;20040;-56
2021/10/31 11:17:58;;;;;;;13.35;11.88;;;896.50;588.80;;;;;;5094972;28;20031;-56
2021/10/31 11:20:28;;;;;;;14.32;12.80;;;921.70;563.20;;;;;;5096167;28;20531;-55
2021/10/31 11:22:57;;;;;;;13.00;11.70;;;896.50;563.20;;;;;;5096089;28;20036;-56
2021/10/31 11:25:25;;;;;;;15.98;14.38;;;870.90;614.40;;;;;;5093666;28;20047;-56
2021/10/31 11:27:53;;;;;;;14.05;12.57;;;871.00;614.40;;;;;;5095960;28;20025;-55
2021/10/31 11:30:20;;;;;;;17.48;14.77;;;921.90;588.80;;;;;;5095612;28;20041;-55
2021/10/31 11:32:47;;;;;;;15.35;13.85;;;947.60;537.60;;;;;;5093435;28;20134;-53
2021/10/31 11:35:16;;;;;;;22.35;20.05;;;921.90;563.20;;;;;;5116911;27;20015;-53
2021/10/31 11:38:06;;;;;;;15.88;11.35;;;947.30;537.60;;;;;;5115676;28;20472;-54
2021/10/31 11:40:35;;;;;;;13.65;11.57;;;948.00;512.00;;;;;;5116741;28;20074;-55
2021/10/31 11:43:05;;;;;;;11.95;10.70;;;922.30;563.20;;;;;;5116514;28;20030;-53
2021/10/31 11:45:36;;;;;;;13.35;11.95;;;922.30;563.20;;;;;;5116811;27;20047;-53
2021/10/31 11:48:22;;;;;;;14.60;12.23;;;921.70;588.80;;;;;;5116977;28;20027;-53
2021/10/31 11:51:03;;;;;;;13.98;12.52;;;896.10;588.80;;;;;;5116820;28;20031;-54
2021/10/31 11:53:39;;;;;;;13.52;11.82;;;896.50;588.80;;;;;;5116668;28;20350;-54
2021/10/31 11:56:24;;;;;;;13.50;11.77;;;947.70;537.60;;;;;;5116454;28;20019;-53
2021/10/31 11:58:53;;;;;;;13.82;12.32;;;947.60;512.00;;;;;;5116479;28;20024;-54
2021/10/31 12:01:23;;;;;;;14.77;13.27;;;922.40;563.20;;;;;;5116527;28;20032;-53
2021/10/31 12:03:55;;;;;;;13.65;12.35;;;922.40;537.60;;;;;;5116190;28;20027;-54
2021/10/31 12:06:26;;;;;;;13.55;12.10;;;948.10;512.00;;;;;;5116466;28;20066;-53
2021/10/31 12:09:00;;;;;;;12.98;11.68;;;922.20;563.20;;;;;;5116429;28;20517;-54
2021/10/31 12:11:29;;;;;;;12.75;11.52;;;972.90;537.60;;;;;;5116298;28;20057;-53
2021/10/31 12:14:09;;;;;;;13.20;11.90;;;973.10;512.00;;;;;;5116310;28;20429;-54
2021/10/31 12:16:57;;;;;;;18.45;12.45;;;972.90;512.00;;;;;;5116294;28;20028;-54
2021/10/31 12:19:37;;;;;;;16.92;12.95;;;947.80;512.00;;;;;;5116191;28;20019;-53
2021/10/31 12:22:19;;;;;;;14.75;13.13;;;947.40;537.60;;;;;;5116131;28;20540;-53
2021/10/31 12:25:00;;;;;;;16.00;13.30;;;922.20;563.20;;;;;;5116320;28;20024;-53
2021/10/31 12:27:41;;;;;;;15.02;13.50;;;922.30;537.60;;;;;;5116342;28;20414;-53
2021/10/31 12:30:26;;;;;;;14.40;13.02;;;921.90;563.20;;;;;;5115998;28;20027;-53
2021/10/31 12:33:02;;;;;;;16.30;14.48;;;896.80;537.60;;;;;;5116439;28;20016;-53
2021/10/31 12:35:31;;;;;;;17.02;15.32;;;896.60;563.20;;;;;;5115823;28;20039;-53
2021/10/31 12:38:26;;;;;;;14.52;12.85;;;922.10;537.60;;;;;;5115759;28;20027;-53
2021/10/31 12:41:09;;;;;;;16.92;13.70;;;896.80;563.20;;;;;;5033181;28;20107;-54
2021/10/31 12:43:44;;;;;;;16.17;13.65;;;922.20;537.60;;;;;;5033033;28;20033;-53
2021/10/31 12:46:32;;;;;;;17.73;13.82;;;947.50;537.60;;;;;;5033153;28;20387;-54
2021/10/31 12:49:01;;;;;;;15.32;13.15;;;948.00;486.40;;;;;;5033029;28;20026;-53